• Back
  •  
  • Position of Reservoir Gates
S.No.
No. of opened gates
Position of opening (In m)
Reporting Date
Reporting Time
Discharge in Cumecs
Discharge in Cusecs
Actual date and time of Gate opening
1
2
3
4
5
6
7
8
1 1 0.6 04/10/2021 8:00:00 AM 71.3 2517.96 4.10.21 8am
2 0 0 04/10/2021 12:00:00 PM 0 0 4.10.21 12pm
3 1 1 05/10/2021 12:00:00 PM 117 4131.85 05/10/2021
4 1 1 06/10/2021 8:00:00 AM 117 4131.85 6.10.21 8am
5 0 0 06/10/2021 4:00:00 PM 0 0
6 5 1.3 22/08/2020 10:00:00 AM 734 25921.21 2 gate opening - 1 m 3 gate opening - 1.5 m
7 7 2 22/08/2020 2:00:00 PM 1600 56504
8 10 2.4 22/08/2020 4:00:00 PM 2808 99164.52
9 10 3.6 22/08/2020 6:00:00 PM 4100 144791.5
10 12 3.33 22/08/2020 8:00:00 PM 4650 164214.75
11 12 3.5 22/08/2020 10:00:00 PM 4850 171277.75
12 12 3 23/08/2020 8:00:00 AM 4656 164426.64
13 12 3.5 23/08/2020 12:00:00 PM 4487 158458.4
14 12 3.5 23/08/2020 4:00:00 PM 4311 152242.96
15 12 3.5 23/08/2020 6:00:00 PM 4260 150441.9
16 12 3.5 23/08/2020 8:00:00 PM 4050 143025.75
17 12 3.5 23/08/2020 10:00:00 PM 3950 139494.25
18 12 3.5 24/08/2020 8:00:00 AM 4260 150441.9 Gate opened on Dated 23/08/2020 at 6.00PM
19 1 0.2 24/08/2020 8:00:00 AM 18 635.67
20 1 0.2 25/08/2020 8:00:00 AM 18 635.67
21 1 0.4 10/10/2021 8:00:00 AM 48.5 1712.78
22 1 0.4 11/10/2021 8:00:00 AM 48.5 1712.78 11.10.21 8am
23 0 0 11/10/2021 4:00:00 PM 0 0
24 1 0.2 26/08/2020 12:00:00 AM 18 635.67
25 1 0.2 26/08/2020 12:00:00 AM 18 635.67
26 1 0.2 27/08/2020 12:00:00 AM 18 635.67
27 1 1 27/08/2020 8:00:00 AM 95 3354.92
28 1 1 28/08/2020 12:00:00 AM 95 3354.92
29 1 1 28/08/2020 8:00:00 AM 95 3354.92 1 Gates opened at 6:0 am today.
30 1 1 29/08/2020 12:00:00 AM 95 3354.92 Actual Date of Gate Opening 28.08.2020 & Time 8.00 AM
31 3 1 29/08/2020 10:00:00 AM 285 10064.77
32 3 1 29/08/2020 10:00:00 AM 285 10064.77
33 4 1 29/08/2020 12:00:03 PM 386 13631.59
34 10 2 29/08/2020 4:00:00 PM 2850 100647.75
35 10 2 30/08/2020 12:00:00 AM 2850 100647.75 Gates opened on dated 29.08.2020 at 4.00AM
36 16 3.75 30/08/2020 12:00:00 PM 3500 123602.5
37 12 3 30/08/2020 1:00:00 PM 3400 120071 8 GATE @ 4 m and 4 gate @ 2 m opening
38 12 2 30/08/2020 8:00:00 AM 3500 123602.5
39 12 3.34 30/08/2020 4:00:00 PM 3200 113008
40 12 3.34 30/08/2020 8:00:00 PM 3100 109476.5
41 12 3.34 31/08/2020 12:00:00 AM 3100 109476.5 Gates Opened on Dated 30.08.2020 at 8.00 PM
42 1 0.4 31/08/2020 8:00:00 PM 36 1271.34
43 12 3.34 31/08/2020 6:00:00 AM 3000 105945
44 1 1 31/08/2020 3:50:00 PM 84.4 2980.59
45 1 0.4 01/09/2020 12:00:00 AM 36 1271.34 31/08/2020 8.00PM
46 0 0 01/09/2020 4:00:00 PM 0 0 ALL GATES ARE CLOSED
47 1 0.6 10/09/2020 12:00:00 AM 71 2507.36
48 5 1 11/09/2020 8:00:00 AM 585 20659.27
49 0 0 11/09/2020 4:00:00 PM 0 0 ALL GATES ARE CLOSED
50 1 0.6 14/09/2020 12:00:00 PM 72 2542.68
51 2 1 15/09/2020 12:00:00 PM 234 8263.71
52 4 1 15/09/2020 6:00:00 PM 324 11442.06
53 1 1 18/09/2020 12:00:00 AM 117 4131.85
54 1 1 19/09/2020 8:00:00 AM 117 4131.85
55 3 1 19/09/2020 8:00:00 PM 315 11124.22 19/09/20 4PM
56 3 1 20/09/2020 12:00:00 AM 315 11124.22
57 5 1 23/09/2020 8:00:00 PM 585 20659.27
58 8 1 24/09/2020 12:00:00 AM 925 32666.37
59 8 1.75 24/09/2020 8:00:00 PM 1600 56504
60 8 1.75 25/09/2020 12:00:00 AM 1600 56504
61 2 1 25/09/2020 8:00:00 PM 222 7839.93 6 gates are closed
62 2 1 26/09/2020 12:00:00 AM 222 7839.93
63 1 1 26/09/2020 12:00:00 PM 108 3814.02
64 1 1 27/09/2020 12:00:00 AM 108 3814.02
65 1 1 28/09/2020 12:00:00 AM 108 3814.02
66 1 1 29/09/2020 12:00:00 AM 108 3814.02
67 1 0.6 29/09/2020 12:00:00 PM 72 2542.68
68 1 0.4 01/10/2020 8:00:00 AM 48 1695.12 Gate reopened
69 1 0.4 02/10/2020 8:00:00 AM 48 1695.12
70 1 0.4 03/10/2020 8:00:00 AM 48 1695.12
71 1 0.4 04/10/2020 8:00:00 AM 48 1695.12
72 1 0.15 19/06/2021 8:00:00 AM 13 459.09
73 1 0.6 25/07/2021 8:00:00 AM 51 1801.06 23/07/2021
74 2 1 25/07/2021 12:00:00 PM 170 6003.55 25/07/2021
75 8 3 26/07/2021 8:00:00 AM 2160 76280.4 25/07/2021
76 8 3 27/07/2021 8:00:00 AM 1422 50217.93 27/07/2021
77 2 2 28/07/2021 8:00:00 AM 273.5 9658.65 28/07/2021
78 4 2 28/07/2021 12:00:00 PM 550 19423.25 28/07/2021
79 2 1 29/07/2021 8:00:00 AM 76 2683.94 29/08/2021
80 1 0.6 29/07/2021 12:00:00 PM 41.8 1476.17 29/08/2021
81 1 0.6 30/07/2021 8:00:00 AM 43 1518.54 30/07/2021
82 0 0 30/07/2021 4:00:00 PM 0 0
83 4 1 02/08/2021 12:00:00 PM 335 02/08/2021
84 4 1 02/08/2021 8:00:00 AM 335 11830.52 02/08/2021
85 4 1 03/08/2021 8:00:00 AM 350 12360.25 03/08/2021
86 4 1 04/08/2021 8:00:00 AM 340 12007.1 04/08/2021
87 3 1 04/08/2021 12:00:00 PM 260 9181.9 04/08/2021
88 3 1 05/08/2021 8:00:00 AM 260 9181.9 05/08/2021
89 6 1 05/08/2021 12:00:00 PM 550 05/08/2021
90 6 1 05/08/2021 12:00:00 PM 550 19423.25 05/08/2021
91 8 2 05/08/2021 8:00:00 PM 1400 49441
92 8 2 06/08/2021 8:00:00 AM 1400 49441 06/08/2021
93 8 2.75 07/08/2021 8:00:00 AM 1788 63143.22 07/08/2021
94 4 2 07/08/2021 12:00:00 PM 680 24014.2 07/08/2021
95 2 2 08/08/2021 8:00:00 AM 340 12007.1 08/08/2021
96 2 0.6 08/08/2021 12:00:00 PM 110 3884.65 08/08/2021
97 2 2 09/08/2021 8:00:00 AM 340 12007.1 09/08/2021
98 2 2 09/08/2021 12:00:00 PM 350 12360.25 09/08/2021
99 2 2 10/08/2021 8:00:00 AM 350 12360.25 10/08/2021
100 2 2 10/08/2021 4:00:00 PM 350 12360.25
101 2 2 11/08/2021 8:00:00 AM 350 12360.25 11/08/2021
102 0 0 11/08/2021 4:00:00 PM 0 0
103 4 1 21/08/2021 8:00:00 AM 420 14832.3
104 4 1 21/08/2021 12:00:00 PM 400 14126 21/08/2021
105 4 1.25 23/08/2021 8:00:00 AM 510 18010.65 23/08/2021
106 2 1 23/08/2021 8:00:00 PM 200 7063
107 2 1 30/08/2021 8:00:00 AM 215 7592.72
108 2 1 30/08/2021 8:00:00 AM 215 7592.72
109 2 1 30/08/2021 12:00:00 PM 210 7416.15 30/08/2021
110 2 1 31/08/2021 8:00:00 AM 210 7416.15 31/08/2021
111 1 1 31/08/2021 8:00:00 PM 100 3531.5
112 1 1 01/09/2021 8:00:00 AM 100 3531.5 01/09/02021
113 0 0 01/09/2021 12:00:00 PM 0 0 01/09/2021 Gate Closed
114 2 1 09/09/2021 12:00:00 PM 235 8299.02 09/09/2021
115 4 1 09/09/2021 4:00:00 PM 470 16598.05
116 5 1 09/09/2021 8:00:00 PM 587 20729.9
117 5 1 10/09/2021 8:00:00 AM 587 20729.9
118 3 1 10/09/2021 12:00:00 PM 340 12007.1
119 3 1 11/09/2021 8:00:00 AM 340 12007.1
120 3 1 12/09/2021 8:00:00 AM 340 12007.1
121 5 1 12/09/2021 12:00:00 PM 580 20482.7
122 5 1 13/09/2021 8:00:00 AM 580 20482.7 13.9.21
123 2 1 13/09/2021 4:00:00 PM 230 8122.45
124 2 1 14/09/2021 8:00:00 AM 230 8122.45 14.9.21 8 am
125 2 1 14/09/2021 12:00:00 PM 230 8122.45 14.9.21 12 am
126 2 1 15/09/2021 8:00:00 AM 230 8122.45 15/09/2021
127 2 1 15/09/2021 12:00:00 PM 230 8122.45 15.9.21 12 am
128 2 1 16/09/2021 8:00:00 AM 230 8122.45 16/09/2021
129 0 0 16/09/2021 12:00:00 PM 0 0 16.9.21 12 am
130 1 1 17/09/2021 8:00:00 AM 115 4061.22 17/09/2021
131 8 1 18/09/2021 8:00:00 AM 1000 35315 18/09/2021
132 8 3 18/09/2021 12:00:00 PM 2750 97116.25
133 1 4 19/09/2021 8:00:00 AM 377 13313.75
134 1 1 20/09/2021 8:00:00 AM 113 3990.59 20/09/2021
135 1 1 21/09/2021 8:00:00 AM 113.5 4008.25 21/09/2021
136 1 1 22/09/2021 8:00:00 AM 113.5 4008.25 22/09/2021
137 1 2 22/09/2021 8:00:00 PM 230 8122.45
138 1 2 23/09/2021 8:00:00 AM 230 8122.45 23/09/2021
139 2 1.5 23/09/2021 12:00:00 PM 345 12183.67 23.9.2112pm
140 2 1.5 24/09/2021 8:00:00 AM 345 12183.67 24/09/2021
141 2 1.5 25/09/2021 8:00:00 AM 340 12007.1
142 3 2 26/09/2021 8:00:00 AM 683 24120.14 26/09/2021
143 3 2 27/09/2021 8:00:00 AM 640 22601.6 27.9.21 8am
144 2 2 27/09/2021 4:00:00 PM 450 15891.75
145 1 0.6 28/09/2021 8:00:00 AM 68 2401.42 28/09/2021
146 0 0 28/09/2021 12:00:00 PM 0 0
147 1 0.6 01/10/2021 8:00:00 AM 78 2754.57 1.10.218am
148 0 0 01/10/2021 12:00:00 PM 0 0 1.10.21 12pm
149 1 0.6 03/10/2021 8:00:00 AM 71.3 2517.96
150 1 0.4 10/07/2019 12:10:00 PM 46 1624.49
151 1 0.4 11/07/2019 12:01:00 AM 46 1624.49
152 1 0.4 12/07/2019 12:01:00 AM 46 1624.49
153 1 0.4 13/07/2019 12:01:00 AM 46 1624.49
154 1 0.4 14/07/2019 12:01:00 AM 46 1624.49
155 1 0.4 14/07/2019 8:30:00 AM 46 1624.49
156 1 0.4 15/07/2019 12:01:00 AM 46 1624.49
157 1 0.4 16/07/2019 12:01:00 AM 46 1624.49
158 1 0.4 16/07/2019 8:30:00 AM 46 1624.49
159 1 0.4 17/07/2019 12:01:00 AM 46 1624.49
160 1 0.4 18/07/2019 12:01:00 AM 46 1624.49
161 1 0.4 18/07/2019 9:10:00 AM 46 1624.49
162 1 0.4 18/07/2019 9:10:00 AM 20 706.3
163 1 0.4 19/07/2019 12:01:00 AM 46 1624.49
164 1 0.4 20/07/2019 12:01:00 AM 46 1624.49
165 1 0.4 20/07/2019 8:30:00 AM 46 1624.49
166 1 0.4 22/07/2019 12:01:00 AM 46 1624.49
167 1 0.4 21/07/2019 12:01:00 AM 46 1624.49
168 1 1.5 22/07/2019 8:30:00 AM 40 1412.6
169 1 0.4 22/07/2019 8:30:00 AM 40 1412.6
170 1 0.4 23/07/2019 12:01:00 AM 40 1412.6
171 1 0.4 24/07/2019 12:01:00 AM 40 1412.6
172 1 0.4 25/07/2019 12:01:00 AM 40 1412.6
173 1 0.4 26/07/2019 12:01:00 AM 40 1412.6
174 1 0.4 26/07/2019 8:40:00 AM 40 1412.6
175 1 0.4 27/07/2019 12:01:00 AM 40 1412.6
176 1 0.4 28/07/2019 12:01:00 AM 40 1412.6
177 1 0.4 28/07/2019 8:40:00 AM 40 1412.6
178 1 0.4 29/07/2019 12:01:00 AM 40 1412.6
179 5 0.92 29/07/2019 8:10:00 AM 589 20800.53 5 gates opening 0.92m average passing discharge 589.00 cumec
180 5 0.92 30/07/2019 12:01:00 AM 589 20800.53 0.92m average gate opening since 29/7/2019at 8:10am passing Q=589 cumec
181 6 2.4 30/07/2019 8:00:00 AM 986 34820.59 2.4 m average gates opening passing discharge 986 cumec
182 8 1.53 30/07/2019 4:10:00 PM 1512 53396.28 average gate opening 1.525m passing Q=1512cumec
183 8 1.53 31/07/2019 12:01:00 AM 1512 53396.28 8 nos.gate opening 1.525m average,since 30/7/2019 at4:10pm,passing discharge 1512 cumec
184 8 1.65 31/07/2019 8:00:00 AM 1502 53043.13 1.65m av.gate opening
185 8 0.98 31/07/2019 8:00:00 AM 1502 53043.13 0.975M Average gates opening and Discharge passed through Spillway 1502 Cumecs.
186 8 0.98 01/08/2019 12:01:00 AM 1502 53043.13 0.975 m av.gates opening and discharge passed through spillway 1502 cusecs
187 8 1.65 01/08/2019 8:00:00 AM 1502 53043.13
188 1 1.65 01/08/2019 11:00:00 AM 1207 42625.2
189 6 0.86 01/08/2019 12:00:00 PM 500 17657.5
190 4 0.6 01/08/2019 4:20:00 PM 268 9464.42
191 4 0.6 01/08/2019 4:20:00 PM 268 9464.42
192 4 0.6 02/08/2019 12:01:00 AM 268 9464.42
193 4 0.6 02/08/2019 8:00:00 AM 268 9464.42
194 4 0.6 03/08/2019 12:01:00 AM 268 9464.42
195 4 0.6 04/08/2019 12:01:00 AM 268 9464.42
196 4 0.6 05/08/2019 12:01:00 AM 268 9464.42
197 2 0.6 05/08/2019 4:15:00 PM 134 4732.21
198 2 0.6 06/08/2019 12:01:00 AM 134 4732.21
199 2 0.6 08/08/2019 5:00:00 AM 115 4061.22
200 2 0.6 06/08/2019 8:00:00 AM 115 4061.22
201 2 0.6 07/08/2019 12:01:00 AM 115 4061.22
202 2 0.6 08/08/2019 12:01:00 AM 115 4061.22
203 2 0.6 09/08/2019 12:01:00 AM 115 4061.22
204 6 1.2 09/08/2019 5:00:00 PM 744 26274.36
205 6 1.2 10/08/2019 12:15:10 AM 744 26274.36
206 6 1.2 10/08/2019 8:00:00 AM 580 20482.7 2 gates open 2m , 2 gates open 1m and 2 gates open 0.6m
207 5 0.84 10/08/2019 1:00:00 PM 440 15538.6
208 5 0.84 10/08/2019 1:00:00 PM 440 15538.6
209 5 0.84 11/08/2019 6:52:00 AM 440 15538.6
210 2 0.6 11/08/2019 1:00:00 PM 120 4237.8
211 2 0.6 12/08/2019 12:05:00 AM 120 4237.8
212 0 0 12/08/2019 8:00:00 PM 0 0 all gates are closed since 11/8 2019
213 5 0.84 14/08/2019 7:00:00 PM 480 16951.2
214 5 0.84 15/08/2019 4:10:00 AM 480 16951.2
215 8 1.15 15/08/2019 9:00:00 AM 1150 40612.25
216 12 2.88 16/08/2019 8:20:00 AM 3500 123602.5
217 12 2.88 17/08/2019 12:13:00 AM 3500 123602.5
218 4 2 17/08/2019 8:00:00 AM 920 32489.8
219 2 0.6 18/08/2019 12:36:00 AM 120 4237.8
220 4 1 18/08/2019 7:15:00 PM 400 14126
221 4 1.25 20/08/2019 12:01:00 AM 534 18858.21
222 4 1 17/08/2019 9:15:00 AM 397 14020.05
223 2 0.6 17/08/2019 12:00:00 PM 120 4237.8
224 4 1.25 19/08/2019 8:00:00 AM 534 18858.21
225 1 0.4 21/08/2019 12:15:00 PM 51 1801.06
226 2 0.6 18/08/2019 8:00:00 AM 120 4237.8
227 4 1 19/08/2019 12:24:00 AM 400 14126
228 4 1.25 20/08/2019 9:00:00 AM 503.3 17775.81
229 2 0.6 21/08/2019 8:00:00 AM 124 4379.06
230 1 51 22/08/2019 12:01:00 AM 51 1801.06 gate opening since 21/8/2019at 4pm
231 1 0.4 22/08/2019 8:00:00 AM 40 1412.6
232 1 0.4 23/08/2019 12:01:00 AM 40 1412.6
233 1 0.4 24/08/2019 12:06:00 AM 43 1518.54
234 5 1 24/08/2019 10:45:00 AM 565 19952.97
235 6 1 24/08/2019 8:00:00 PM 675 23837.63
236 1 0.3 25/08/2019 12:01:00 AM 31.68 1118.78
237 6 1 25/08/2019 12:01:00 AM 675 23837.63
238 6 1 25/08/2019 8:00:00 AM 703 24826.44
239 6 1 26/08/2019 12:08:00 AM 703 24826.44
240 6 1 26/08/2019 11:00:00 AM 665 23484.47
241 6 1 27/08/2019 12:03:00 AM 665 23484.47
242 6 1 27/08/2019 10:00:00 AM 654 23096.01
243 6 1 27/08/2019 8:00:00 PM 690 24367.35
244 6 1 28/08/2019 12:01:00 AM 690 24367.35
245 6 1 28/08/2019 8:00:00 PM 670 23661.05
246 6 1 28/08/2019 11:00:00 AM 670 23661.05
247 0 0 28/08/2019 4:00:00 PM 0 0 all gates are closed at 4:0pm
248 1 0.4 29/08/2019 8:00:00 PM 45 1589.17
249 6 1 29/08/2019 12:01:00 AM 670 23661.05
250 6 1 29/08/2019 12:01:00 AM 670 23661.05
251 1 0.4 29/08/2019 12:00:00 PM 40 1412.6
252 1 0.4 30/08/2019 12:00:00 PM 46 1624.49
253 1 30/08/2019 12:00:00 PM 46
254 1 0.4 31/08/2019 12:01:00 AM 46 1624.49
255 1 0.4 01/09/2019 12:01:00 AM 46 1624.49
256 0 0 01/09/2019 8:00:00 AM 0 0 all gates are closed
257 3 1 01/09/2019 6:30:00 PM 350 12360.25
258 3 1 02/09/2019 7:00:00 AM 350 12360.25
259 1 0.6 03/09/2019 12:01:00 AM 69 2436.73
260 1 0.6 04/09/2019 8:00:00 AM 71 2507.36
261 5 1 05/09/2019 11:15:00 AM 590 20835.85
262 5 1 06/09/2019 12:01:00 AM 590 20835.85 gate opening since 5/9/019 at 11:15am
263 5 1 06/09/2019 12:10:00 PM 580 20482.7
264 5 1 06/09/2019 8:00:00 PM 580 20482.7
265 5 1 07/09/2019 3:12:00 AM 580 20482.7
266 5 1 07/09/2019 12:10:00 PM 575 20306.13
267 5 1 08/09/2019 8:00:00 AM 370 13066.55
268 7 1 09/09/2019 3:00:00 AM 775 27369.13
269 8 1.75 09/09/2019 12:00:00 PM 1750 61801.25
270 10 1 09/09/2019 4:00:00 PM 2600 91819
271 11 2.18 10/09/2019 8:00:00 AM 2902 102484.13
272 11 2.17 11/09/2019 6:00:00 AM 2600 91819
273 5 5 11/09/2019 8:00:00 AM 500 17657.5
274 7 1 12/09/2019 4:00:00 AM 730 25779.95
275 12 2.33 13/09/2019 3:00:00 AM 3290 116186.35
276 12 2.91 13/09/2019 10:50:00 AM 4051 143061.07
277 12 1.5 13/09/2019 4:00:00 PM 2000 70630
278 10 1 12/09/2019 12:00:00 PM 1100 38846.5
279 12 2.33 12/09/2019 8:00:00 PM 3290 116186.35
280 12 3 14/09/2019 12:00:00 PM 4200 148323
281 10 1.5 14/09/2019 12:01:00 AM 2000 70630
282 12 12 14/09/2019 4:00:00 PM 4500 158917.5
283 12 1.83 15/09/2019 9:00:00 AM 2466 87086.79
284 6 1 16/09/2019 12:01:00 AM 680 24014.2
285 4 1 16/09/2019 12:00:00 PM 440 15538.6
286 6 1 15/09/2019 6:45:00 PM 680 24014.2
287 1 1 16/09/2019 8:00:00 PM 110 3884.65
288 1 1 17/09/2019 12:01:00 AM 110 3884.65
289 4 2 17/09/2019 8:00:00 AM 667 23555.1
290 2 1 20/09/2019 12:01:00 AM 227 8016.5
291 4 1.5 18/09/2019 12:01:00 AM 645 22778.17
292 4 1.5 18/09/2019 10:00:00 AM 669 23625.73
293 2 1 19/09/2019 8:00:00 AM 227 8016.5
294 2 1 18/09/2019 9:30:00 AM 220 7769.3
295 2 1 21/09/2019 12:01:00 AM 227 8016.5
296 4 1 21/09/2019 9:00:00 AM 465 16421.47
297 6 1 22/09/2019 1:00:00 PM 750 26486.25
298 6 0.86 24/09/2019 8:00:00 AM 635 22425.02
299 6 1 22/09/2019 12:01:00 AM 700 24720.5
300 6 1 21/09/2019 10:30:00 PM 700 24720.5
301 6 0.86 24/09/2019 12:01:00 AM 650 22954.75
302 6 1 23/09/2019 8:00:00 AM 734 25921.21
303 6 1 23/09/2019 1:16:00 AM 750 26486.25
304 2 216 28/09/2019 4:15:00 AM 216 7628.04
305 6 0.86 26/09/2019 11:45:00 AM 580 20482.7
306 6 0.86 25/09/2019 12:14:00 AM 635 22425.02
307 6 0.86 25/09/2019 8:00:00 AM 618 21824.67
308 6 0.86 26/09/2019 12:01:00 AM 630 22248.45
309 6 0.86 27/09/2019 12:01:00 AM 580 20482.7
310 2 1 27/09/2019 8:00:00 AM 216 7628.04
311 2 1 29/09/2019 2:20:00 AM 216 7628.04
312 2 1 29/09/2019 9:00:00 AM 237 8369.65
313 2 1 30/09/2019 12:01:00 AM 229 8087.13
314 2 1 01/10/2019 12:00:00 PM 239 8440.28
315 4 1 01/10/2019 4:00:00 PM 478 16880.57
316 2 1 01/10/2019 8:00:00 AM 235 8299.02
317 5 1 02/10/2019 4:00:00 PM 590 20835.85
318 5 1 01/10/2019 8:00:00 PM 600 21189
319 2 1 03/10/2019 12:00:00 PM 230 8122.45
320 1 1 14/10/2019 12:00:00 PM 112 3955.28
321 5 1 02/10/2019 8:00:00 PM 580 20482.7
322 5 1 03/10/2019 12:01:00 AM 580 20482.7
323 5 1 03/10/2019 8:00:00 AM 570 20129.55
324 2 1 04/10/2019 12:01:00 AM 230 8122.45
325 0 0 04/10/2019 10:00:00 AM 0 0
326 1 0.6 10/10/2019 4:00:00 AM 78 2754.57
327 1 0.6 11/10/2019 8:00:00 AM 0.6 21.19
328 2 1 12/10/2019 10:00:00 AM 240 8475.6
329 1 0.6 09/10/2019 4:00:00 PM 78 2754.57
330 2 1 13/10/2019 10:00:00 AM 230 8122.45
331 2 1 13/10/2019 9:00:00 PM 220 7769.3
332 2 1 11/10/2019 4:00:00 PM 260 9181.9
333 0 0 14/10/2019 6:00:00 PM 0 0 All gates are closed
334 1 0.4 03/07/2020 12:00:04 PM 40.7 1437.32
335 1 0.4 04/07/2020 12:17:00 PM 40.7 1437.32
336 1 0.4 05/07/2020 12:00:00 PM 40.7 1437.32
337 1 0.4 06/07/2020 8:00:00 AM 40.7 1437.32
338 1 1 09/07/2020 12:00:00 PM 94 3319.61
339 1 1 10/07/2020 12:00:00 PM 94 3319.61
340 1 1 11/07/2020 8:00:00 AM 94 3319.61
341 1 1 12/07/2020 8:00:00 AM 94 3319.61
342 1 1 17/07/2020 12:49:00 PM 80.4 2839.33
343 1 1 18/07/2020 8:00:00 AM 77 2719.25
344 1 1 19/07/2020 8:00:00 AM 77 2719.25
345 1 1 20/07/2020 12:15:00 PM 77 2719.25
346 1 1 21/07/2020 8:00:00 AM 68 2401.42
347 1 1 22/07/2020 10:00:00 AM 62 2189.53
348 1 0.4 23/07/2020 10:00:00 AM 26 918.19
349 1 0.4 24/07/2020 9:00:00 AM 26 918.19
350 1 0.4 26/07/2020 8:00:00 AM 26 918.19
351 1 0.4 27/07/2020 8:10:00 AM 25 882.88
352 1 0.2 28/07/2020 8:00:00 AM 12 423.78
Powered by © Water Resources Department (MP). All Rights Reserved.